Time;durP1;ratioP1;P1;durP2;ratioP2;P2;SDS_P1;SDS_P2;PMS_P1;PMS_P2;Temp;Humidity;BMP_temperature;BMP_pressure;BME280_temperature;BME280_humidity;BME280_pressure;Samples;Min_cycle;Max_cycle;Signal;HPM_P1;HPM_P2
2022/07/28 00:00:33;;;;;;;5.20;2.73;;;13.80;99.90;;;;;;5075889;28;20440;-57
2022/07/28 00:03:00;;;;;;;9.20;3.40;;;13.80;99.90;;;;;;5076747;28;20491;-55
2022/07/28 00:05:28;;;;;;;6.30;3.23;;;13.70;99.90;;;;;;5076880;28;20508;-53
2022/07/28 00:07:59;;;;;;;4.53;3.53;;;13.70;99.90;;;;;;5077056;28;20523;-53
2022/07/28 00:10:31;;;;;;;4.53;3.10;;;13.70;99.90;;;;;;5077039;28;20496;-57
2022/07/28 00:12:59;;;;;;;6.30;3.10;;;13.70;99.90;;;;;;5077025;28;20465;-52
2022/07/28 00:15:28;;;;;;;3.60;2.53;;;13.70;99.90;;;;;;5076709;28;20512;-53
2022/07/28 00:17:55;;;;;;;4.97;3.00;;;13.60;99.90;;;;;;5077303;28;20801;-56
2022/07/28 00:20:26;;;;;;;8.73;3.00;;;13.70;99.90;;;;;;5077121;28;20511;-57
2022/07/28 00:22:54;;;;;;;5.20;2.80;;;13.60;99.90;;;;;;5076721;28;20539;-55
2022/07/28 00:25:25;;;;;;;4.20;2.90;;;13.60;99.90;;;;;;5076303;28;20583;-52
2022/07/28 00:27:53;;;;;;;5.33;2.80;;;13.60;99.90;;;;;;5076736;28;20880;-57
2022/07/28 00:30:21;;;;;;;4.10;2.80;;;13.60;99.90;;;;;;5076660;28;20489;-53
2022/07/28 00:32:48;;;;;;;6.00;3.10;;;13.70;99.90;;;;;;5076382;28;20461;-52
2022/07/28 00:35:17;;;;;;;6.20;3.30;;;13.60;99.90;;;;;;5076770;28;20886;-51
2022/07/28 00:37:44;;;;;;;7.60;3.33;;;13.60;99.90;;;;;;5075657;28;20449;-55
2022/07/28 00:40:12;;;;;;;5.83;3.00;;;13.60;99.90;;;;;;5076755;28;20739;-55
2022/07/28 00:42:44;;;;;;;7.83;3.30;;;13.60;99.90;;;;;;5079355;28;20459;-54
2022/07/28 00:45:13;;;;;;;3.00;2.33;;;13.60;99.90;;;;;;5078995;28;20462;-55
2022/07/28 00:47:40;;;;;;;2.73;2.43;;;13.60;99.90;;;;;;5079127;28;20518;-56
2022/07/28 00:50:10;;;;;;;5.03;3.40;;;13.60;99.90;;;;;;5078938;28;20960;-53
2022/07/28 00:52:38;;;;;;;8.60;3.17;;;13.50;99.90;;;;;;5078720;28;20552;-54
2022/07/28 00:55:06;;;;;;;4.20;2.97;;;13.50;99.90;;;;;;5078839;28;20464;-52
2022/07/28 00:57:33;;;;;;;3.83;2.63;;;13.50;99.90;;;;;;5077934;28;20494;-55
2022/07/28 01:00:01;;;;;;;4.83;2.70;;;13.50;99.90;;;;;;5076268;28;20536;-52
2022/07/28 01:02:30;;;;;;;5.83;3.33;;;13.50;99.90;;;;;;5078541;28;20945;-55
2022/07/28 01:04:57;;;;;;;4.03;3.13;;;13.50;99.90;;;;;;5078170;28;20454;-53
2022/07/28 01:07:38;;;;;;;5.57;2.80;;;13.50;99.90;;;;;;5078256;28;20453;-55
2022/07/28 01:10:16;;;;;;;4.10;3.13;;;13.50;99.90;;;;;;5075080;28;20487;-56
2022/07/28 01:13:02;;;;;;;3.43;2.90;;;13.40;99.90;;;;;;5075403;28;20806;-50
2022/07/28 01:15:35;;;;;;;7.13;3.13;;;13.40;99.90;;;;;;5077322;28;20804;-56
2022/07/28 01:18:10;;;;;;;5.20;3.10;;;13.40;99.90;;;;;;5076294;28;20461;-57
2022/07/28 01:20:43;;;;;;;5.47;3.00;;;13.40;99.90;;;;;;5078158;28;20445;-52
2022/07/28 01:23:39;;;;;;;5.10;3.03;;;13.40;99.90;;;;;;5077247;28;20475;-53
2022/07/28 01:26:20;;;;;;;5.07;3.53;;;13.40;99.90;;;;;;5076204;28;20986;-55
2022/07/28 01:28:59;;;;;;;3.80;2.87;;;13.40;99.90;;;;;;5075826;28;20939;-53
2022/07/28 01:31:37;;;;;;;5.13;3.37;;;13.40;99.90;;;;;;5075807;28;20511;-55
2022/07/28 01:34:09;;;;;;;5.33;2.80;;;13.40;99.90;;;;;;5075728;28;20457;-50
2022/07/28 01:36:41;;;;;;;3.87;2.70;;;13.40;99.90;;;;;;5077856;28;20547;-54
2022/07/28 01:39:12;;;;;;;4.50;2.83;;;13.40;99.90;;;;;;5078095;28;20476;-58
2022/07/28 01:41:43;;;;;;;5.10;3.03;;;13.30;99.90;;;;;;5078169;28;20431;-50
2022/07/28 01:44:19;;;;;;;4.53;2.33;;;13.30;99.90;;;;;;5078104;28;20461;-55
2022/07/28 01:46:49;;;;;;;6.73;2.70;;;13.30;99.90;;;;;;5075974;28;20449;-49
2022/07/28 01:49:18;;;;;;;4.87;2.50;;;13.30;99.90;;;;;;5077553;28;20488;-57
2022/07/28 01:51:47;;;;;;;4.33;2.80;;;13.20;99.90;;;;;;5076962;28;20535;-53
2022/07/28 01:54:15;;;;;;;6.47;3.23;;;13.20;99.90;;;;;;5077662;28;20541;-51
2022/07/28 01:56:44;;;;;;;4.23;3.30;;;13.10;99.90;;;;;;5074906;28;20457;-50
2022/07/28 01:59:14;;;;;;;5.50;2.60;;;13.10;99.90;;;;;;5077811;28;20871;-56
2022/07/28 02:01:45;;;;;;;6.60;3.20;;;13.00;99.90;;;;;;5074288;28;20449;-55
2022/07/28 02:04:18;;;;;;;6.97;3.10;;;12.90;99.90;;;;;;5077600;28;20461;-56
2022/07/28 02:06:47;;;;;;;5.67;2.80;;;12.80;99.90;;;;;;5075273;28;20428;-57
2022/07/28 02:09:15;;;;;;;5.13;3.20;;;12.80;99.90;;;;;;5077510;28;20535;-52
2022/07/28 02:11:44;;;;;;;4.50;3.10;;;12.80;99.90;;;;;;5074958;28;20474;-52
2022/07/28 02:14:17;;;;;;;2.47;2.27;;;12.70;99.90;;;;;;5076948;28;20435;-54
2022/07/28 02:16:48;;;;;;;6.17;2.70;;;12.70;99.90;;;;;;5074933;28;20423;-54
2022/07/28 02:19:20;;;;;;;5.03;2.63;;;12.60;99.90;;;;;;5077173;28;20424;-57
2022/07/28 02:21:49;;;;;;;6.07;3.23;;;12.60;99.90;;;;;;5075541;28;20735;-54
2022/07/28 02:24:19;;;;;;;5.73;3.20;;;12.60;99.90;;;;;;5077424;28;20428;-56
2022/07/28 02:26:53;;;;;;;6.87;3.20;;;12.50;99.90;;;;;;5076903;28;20427;-56
2022/07/28 02:29:27;;;;;;;7.23;3.37;;;12.50;99.90;;;;;;5077043;28;20564;-53
2022/07/28 02:32:04;;;;;;;5.20;3.63;;;12.40;99.90;;;;;;5077187;28;20454;-53
2022/07/28 02:34:37;;;;;;;8.23;3.30;;;12.40;99.90;;;;;;5075260;28;20457;-56
2022/07/28 02:37:08;;;;;;;3.97;2.87;;;12.40;99.90;;;;;;5074964;28;20461;-55
2022/07/28 02:39:42;;;;;;;7.10;3.53;;;12.30;99.90;;;;;;5078522;28;20432;-50
2022/07/28 02:42:15;;;;;;;5.93;4.07;;;12.20;99.90;;;;;;5077886;28;20464;-55
2022/07/28 02:44:46;;;;;;;7.10;2.90;;;12.20;99.90;;;;;;5078086;28;20446;-57
2022/07/28 02:47:24;;;;;;;3.97;3.20;;;12.20;99.90;;;;;;5077903;28;20805;-57
2022/07/28 02:49:55;;;;;;;3.73;3.33;;;12.20;99.90;;;;;;5078123;28;20463;-57
2022/07/28 02:52:24;;;;;;;5.23;3.57;;;12.10;99.90;;;;;;5077859;28;20471;-52
2022/07/28 02:54:52;;;;;;;6.90;2.83;;;12.10;99.90;;;;;;5077559;28;20641;-57
2022/07/28 02:57:25;;;;;;;5.20;3.07;;;12.00;99.90;;;;;;5077935;28;20436;-51
2022/07/28 02:59:54;;;;;;;6.57;4.30;;;12.10;99.90;;;;;;5076927;28;20437;-54
2022/07/28 03:02:24;;;;;;;5.43;3.30;;;12.00;99.90;;;;;;5077586;28;20436;-54
2022/07/28 03:05:00;;;;;;;8.80;2.93;;;12.00;99.90;;;;;;5077319;28;20461;-57
2022/07/28 03:07:31;;;;;;;6.33;3.73;;;12.00;99.90;;;;;;5077893;28;20465;-55
2022/07/28 03:10:02;;;;;;;4.60;3.10;;;12.00;99.90;;;;;;5077190;28;20539;-53
2022/07/28 03:12:29;;;;;;;10.77;3.27;;;12.00;99.90;;;;;;5077374;28;20465;-53
2022/07/28 03:14:57;;;;;;;5.00;3.37;;;12.00;99.90;;;;;;5077251;28;20473;-58
2022/07/28 03:17:26;;;;;;;9.37;4.10;;;12.00;99.90;;;;;;5077659;28;20461;-53
2022/07/28 03:19:54;;;;;;;4.97;3.47;;;11.90;99.90;;;;;;5077422;28;20440;-51
2022/07/28 03:22:22;;;;;;;8.97;3.40;;;11.90;99.90;;;;;;5077507;28;20465;-56
2022/07/28 03:24:54;;;;;;;7.03;4.67;;;11.90;99.90;;;;;;5076983;28;20461;-52
2022/07/28 03:27:25;;;;;;;4.70;3.70;;;11.90;1.00;;;;;;5077570;28;20895;-57
2022/07/28 03:30:00;;;;;;;4.83;2.87;;;11.80;1.00;;;;;;5076954;28;20495;-55
2022/07/28 03:32:29;;;;;;;4.53;2.97;;;11.80;1.00;;;;;;5073846;28;20898;-51
2022/07/28 03:35:01;;;;;;;8.20;3.10;;;11.80;1.00;;;;;;5075189;28;20505;-51
2022/07/28 03:37:37;;;;;;;6.53;3.50;;;11.70;1.00;;;;;;5076771;28;20474;-52
2022/07/28 03:40:08;;;;;;;4.30;3.03;;;11.70;1.00;;;;;;5077649;28;20559;-58
2022/07/28 03:42:37;;;;;;;5.00;3.57;;;11.70;1.00;;;;;;5075856;28;20473;-56
2022/07/28 03:45:07;;;;;;;7.90;3.63;;;11.70;1.00;;;;;;5076598;28;20539;-56
2022/07/28 03:47:37;;;;;;;5.53;3.90;;;11.70;1.00;;;;;;5076071;28;20546;-58
2022/07/28 03:50:06;;;;;;;6.80;3.93;;;11.70;1.00;;;;;;5075435;28;20535;-56
2022/07/28 03:52:37;;;;;;;7.70;4.20;;;11.60;1.00;;;;;;5075914;28;20496;-54
2022/07/28 03:55:06;;;;;;;7.10;3.90;;;11.60;1.00;;;;;;5075685;28;20479;-55
2022/07/28 03:57:33;;;;;;;6.53;4.03;;;11.50;1.00;;;;;;5076912;28;20466;-58
2022/07/28 04:00:10;;;;;;;6.93;3.67;;;11.50;1.00;;;;;;5076519;28;20450;-55
2022/07/28 04:02:42;;;;;;;10.20;4.23;;;11.50;1.00;;;;;;5075801;28;20476;-55
2022/07/28 04:05:12;;;;;;;6.47;4.73;;;11.60;1.00;;;;;;5075702;28;20501;-54
2022/07/28 04:07:40;;;;;;;6.70;4.23;;;11.60;1.00;;;;;;5077222;28;20461;-57
2022/07/28 04:10:09;;;;;;;5.07;4.33;;;11.50;1.00;;;;;;5076832;28;20492;-56
2022/07/28 04:12:50;;;;;;;6.70;4.43;;;11.50;1.00;;;;;;5076626;28;20461;-59
2022/07/28 04:15:18;;;;;;;10.90;4.60;;;11.60;1.00;;;;;;5077115;28;20757;-56
2022/07/28 04:17:47;;;;;;;5.33;4.17;;;11.60;1.00;;;;;;5080549;28;20863;-54
2022/07/28 04:20:17;;;;;;;5.20;4.30;;;11.60;1.00;;;;;;5081307;28;20763;-51
2022/07/28 04:22:47;;;;;;;6.97;4.03;;;11.60;1.00;;;;;;5079404;28;20469;-51
2022/07/28 04:25:20;;;;;;;4.87;4.37;;;11.50;1.00;;;;;;5081044;28;20556;-57
2022/07/28 04:27:48;;;;;;;7.77;4.43;;;11.60;1.00;;;;;;5079605;28;20480;-56
2022/07/28 04:30:20;;;;;;;6.70;4.20;;;11.60;1.00;;;;;;5080023;28;21008;-52
2022/07/28 04:32:48;;;;;;;6.43;4.03;;;11.60;1.00;;;;;;5060280;28;20472;-57
2022/07/28 04:35:18;;;;;;;7.60;4.00;;;11.60;1.00;;;;;;5063030;28;20470;-55
2022/07/28 04:37:47;;;;;;;6.73;4.23;;;11.60;1.00;;;;;;5080033;28;20478;-56
2022/07/28 04:40:17;;;;;;;7.50;4.20;;;11.60;1.00;;;;;;5077127;28;20823;-59
2022/07/28 04:42:45;;;;;;;5.60;3.87;;;11.70;1.00;;;;;;5080222;28;20552;-55
2022/07/28 04:45:13;;;;;;;7.70;4.50;;;11.70;1.00;;;;;;5079085;28;20518;-54
2022/07/28 04:47:40;;;;;;;4.83;3.97;;;11.70;1.00;;;;;;5077752;28;20465;-52
2022/07/28 04:50:09;;;;;;;7.30;4.13;;;11.80;1.00;;;;;;5079859;28;20587;-51
2022/07/28 04:52:38;;;;;;;5.73;4.50;;;11.80;1.00;;;;;;5079633;28;20484;-52
2022/07/28 04:55:07;;;;;;;4.70;4.30;;;11.80;1.00;;;;;;5079938;28;20464;-55
2022/07/28 04:57:34;;;;;;;7.57;4.03;;;11.90;1.00;;;;;;5073978;28;20480;-54
2022/07/28 05:00:10;;;;;;;8.37;4.57;;;11.90;1.00;;;;;;5073540;28;20877;-57
2022/07/28 05:02:39;;;;;;;6.30;4.17;;;11.90;1.00;;;;;;5079617;28;20464;-56
2022/07/28 05:05:07;;;;;;;5.00;4.43;;;12.00;1.00;;;;;;5078518;28;20711;-57
2022/07/28 05:07:35;;;;;;;8.30;4.60;;;12.00;1.00;;;;;;5079463;28;20474;-56
2022/07/28 05:10:10;;;;;;;6.73;4.10;;;12.00;1.00;;;;;;5079894;28;20539;-55
2022/07/28 05:12:38;;;;;;;8.57;4.60;;;12.00;1.00;;;;;;5079519;28;20457;-58
2022/07/28 05:15:09;;;;;;;6.77;4.33;;;12.00;1.00;;;;;;5080042;28;20912;-55
2022/07/28 05:17:37;;;;;;;8.23;4.77;;;12.10;1.00;;;;;;5079449;28;20497;-57
2022/07/28 05:20:07;;;;;;;9.00;4.20;;;12.20;1.00;;;;;;5080178;28;20457;-56
2022/07/28 05:22:42;;;;;;;5.57;4.03;;;12.20;1.00;;;;;;5079326;28;20435;-58
2022/07/28 05:25:24;;;;;;;9.63;4.40;;;12.30;1.00;;;;;;5079357;28;20507;-56
2022/07/28 05:28:01;;;;;;;4.97;3.93;;;12.40;1.00;;;;;;5078656;28;20468;-56
2022/07/28 05:30:29;;;;;;;7.10;4.37;;;12.50;1.00;;;;;;5077918;28;20489;-55
2022/07/28 05:33:00;;;;;;;6.47;4.87;;;12.60;1.00;;;;;;5079054;28;20921;-59
2022/07/28 05:35:27;;;;;;;5.93;4.47;;;12.60;1.00;;;;;;5079508;28;20915;-55
2022/07/28 05:37:54;;;;;;;6.00;4.70;;;12.60;1.00;;;;;;5079422;28;20500;-58
2022/07/28 05:40:23;;;;;;;6.90;4.47;;;12.70;1.00;;;;;;5078047;28;20457;-55
2022/07/28 05:42:54;;;;;;;5.43;4.90;;;12.80;1.00;;;;;;5078706;28;20462;-59
2022/07/28 05:45:21;;;;;;;13.83;5.40;;;12.90;1.00;;;;;;5079232;28;20547;-57
2022/07/28 05:47:53;;;;;;;5.37;4.87;;;13.00;1.00;;;;;;5078948;28;20469;-58
2022/07/28 05:50:22;;;;;;;7.47;5.63;;;13.10;99.90;;;;;;5079036;28;20550;-59
2022/07/28 05:52:50;;;;;;;5.67;4.43;;;13.20;99.90;;;;;;5078157;28;20485;-57
2022/07/28 05:55:18;;;;;;;8.60;4.53;;;13.30;99.90;;;;;;5078309;28;20932;-54
2022/07/28 05:57:47;;;;;;;5.90;4.70;;;13.50;99.90;;;;;;5078638;28;20465;-58
2022/07/28 06:00:17;;;;;;;4.53;4.13;;;13.70;99.90;;;;;;5078156;28;20457;-59
2022/07/28 06:02:48;;;;;;;6.73;4.60;;;14.00;99.90;;;;;;5078581;28;20465;-59
2022/07/28 06:05:17;;;;;;;6.63;4.73;;;14.20;99.90;;;;;;5078632;28;20472;-59
2022/07/28 06:07:44;;;;;;;6.03;4.40;;;14.40;99.90;;;;;;5078741;28;20465;-58
2022/07/28 06:10:15;;;;;;;5.80;4.37;;;14.70;99.90;;;;;;5078678;28;20465;-59
2022/07/28 06:12:46;;;;;;;6.60;3.97;;;14.90;99.90;;;;;;5078317;28;20443;-56
2022/07/28 06:15:19;;;;;;;5.90;4.23;;;15.20;99.90;;;;;;5078678;28;20461;-59
2022/07/28 06:17:47;;;;;;;8.63;4.30;;;15.40;99.90;;;;;;5079204;28;20928;-60
2022/07/28 06:20:15;;;;;;;8.50;4.20;;;15.60;99.90;;;;;;5078693;28;20461;-59
2022/07/28 06:22:45;;;;;;;5.70;4.00;;;15.90;99.90;;;;;;5078533;28;20987;-59
2022/07/28 06:25:14;;;;;;;4.80;4.10;;;16.10;99.90;;;;;;5078323;28;20516;-60
2022/07/28 06:27:41;;;;;;;12.70;4.20;;;16.30;99.90;;;;;;5078388;28;20468;-59
2022/07/28 06:30:12;;;;;;;6.73;3.93;;;16.50;99.90;;;;;;5078477;28;20435;-60
2022/07/28 06:32:42;;;;;;;5.70;4.57;;;16.60;99.90;;;;;;5078011;28;20568;-60
2022/07/28 06:35:10;;;;;;;12.40;4.30;;;16.70;99.90;;;;;;5078306;28;20461;-60
2022/07/28 06:37:38;;;;;;;8.47;3.50;;;16.90;99.90;;;;;;5076820;28;20439;-60
2022/07/28 06:40:10;;;;;;;9.20;4.40;;;17.20;99.90;;;;;;5077112;28;20457;-60
2022/07/28 06:42:37;;;;;;;5.07;3.50;;;17.40;99.90;;;;;;5078043;28;20467;-58
2022/07/28 06:45:06;;;;;;;5.53;4.27;;;17.40;99.90;;;;;;5077910;28;20465;-60
2022/07/28 06:47:33;;;;;;;4.00;3.47;;;17.60;99.90;;;;;;5078105;28;20468;-59
2022/07/28 06:50:03;;;;;;;7.07;4.17;;;17.70;99.90;;;;;;5077895;28;20462;-60
2022/07/28 06:52:32;;;;;;;4.20;3.53;;;17.50;99.90;;;;;;5077123;28;20763;-60
2022/07/28 06:55:07;;;;;;;6.53;3.60;;;17.90;99.90;;;;;;5077665;28;20816;-59
2022/07/28 06:57:35;;;;;;;6.27;3.67;;;18.20;99.90;;;;;;5077787;28;20461;-59
2022/07/28 07:00:07;;;;;;;7.33;3.50;;;18.40;99.90;;;;;;5077180;28;20774;-60
2022/07/28 07:02:38;;;;;;;4.90;3.23;;;18.70;99.90;;;;;;5077032;28;20461;-60
2022/07/28 07:05:09;;;;;;;5.53;3.40;;;19.20;99.90;;;;;;5077561;28;20774;-59
2022/07/28 07:07:37;;;;;;;6.30;3.27;;;19.10;99.90;;;;;;5077811;28;20568;-61
2022/07/28 07:10:05;;;;;;;5.13;3.30;;;18.90;99.90;;;;;;5077934;28;20501;-60
2022/07/28 07:12:38;;;;;;;10.47;3.93;;;19.60;99.90;;;;;;5077046;28;20489;-60
2022/07/28 07:15:08;;;;;;;4.17;2.80;;;19.90;99.90;;;;;;5077253;28;20465;-58
2022/07/28 07:17:40;;;;;;;4.53;3.00;;;19.70;99.90;;;;;;5076731;28;20515;-59
2022/07/28 07:20:13;;;;;;;5.43;3.37;;;19.10;99.90;;;;;;5076867;28;20460;-59
2022/07/28 07:22:42;;;;;;;4.17;2.80;;;19.30;99.90;;;;;;5076996;28;20458;-59
2022/07/28 07:25:12;;;;;;;5.37;3.20;;;19.60;99.90;;;;;;5077576;28;20439;-60
2022/07/28 07:27:43;;;;;;;4.30;3.30;;;19.60;99.90;;;;;;5077625;28;20469;-60
2022/07/28 07:30:14;;;;;;;5.10;2.90;;;19.50;99.90;;;;;;5077134;28;20725;-60
2022/07/28 07:32:41;;;;;;;7.73;2.90;;;20.20;99.90;;;;;;5076910;28;20543;-60
2022/07/28 07:35:11;;;;;;;4.57;4.17;;;20.80;99.90;;;;;;5077168;28;20461;-60
2022/07/28 07:37:39;;;;;;;4.87;2.87;;;20.70;99.90;;;;;;5077381;28;20469;-60
2022/07/28 07:40:07;;;;;;;6.40;3.50;;;20.80;99.90;;;;;;5077032;28;20461;-60
2022/07/28 07:42:34;;;;;;;6.40;3.63;;;21.00;99.90;;;;;;5077098;28;20885;-60
2022/07/28 07:45:01;;;;;;;5.30;3.30;;;20.90;99.90;;;;;;5077183;28;20502;-60
2022/07/28 07:47:29;;;;;;;7.53;3.13;;;21.30;99.90;;;;;;5077282;28;20464;-61
2022/07/28 07:49:59;;;;;;;4.57;2.73;;;21.50;99.90;;;;;;5076830;28;20544;-61
2022/07/28 07:52:29;;;;;;;5.10;2.57;;;21.50;99.90;;;;;;5076734;28;20571;-60
2022/07/28 07:54:59;;;;;;;5.73;3.00;;;21.90;99.90;;;;;;5077003;28;20467;-61
2022/07/28 07:57:28;;;;;;;5.43;3.13;;;22.00;99.90;;;;;;5077171;28;20480;-60
2022/07/28 07:59:55;;;;;;;4.53;3.10;;;22.20;99.90;;;;;;5075641;28;20498;-60
2022/07/28 08:02:23;;;;;;;5.23;3.43;;;22.40;99.90;;;;;;5076860;28;20453;-60
2022/07/28 08:04:50;;;;;;;3.67;2.73;;;22.30;99.90;;;;;;5077007;28;20465;-60
2022/07/28 08:07:18;;;;;;;5.83;2.73;;;22.70;99.90;;;;;;5076228;28;20458;-61
2022/07/28 08:09:49;;;;;;;4.57;3.03;;;22.80;99.90;;;;;;5076145;28;20468;-60
2022/07/28 08:12:16;;;;;;;4.60;3.13;;;22.90;99.90;;;;;;5076682;28;20532;-60
2022/07/28 08:14:45;;;;;;;5.70;3.30;;;23.00;99.90;;;;;;5076496;28;20461;-60
2022/07/28 08:17:12;;;;;;;3.90;3.00;;;22.70;99.90;;;;;;5077064;28;20754;-59
2022/07/28 08:19:40;;;;;;;3.90;3.53;;;22.80;99.90;;;;;;5077127;28;20466;-60
2022/07/28 08:22:09;;;;;;;5.63;2.70;;;22.50;99.90;;;;;;5075640;28;20951;-55
2022/07/28 08:24:39;;;;;;;4.67;2.53;;;22.40;99.90;;;;;;5076113;28;20474;-61
2022/07/28 08:27:09;;;;;;;6.17;2.57;;;22.10;99.90;;;;;;5076072;28;20511;-60
2022/07/28 08:29:36;;;;;;;5.03;2.93;;;22.40;99.90;;;;;;5076128;28;20442;-60
2022/07/28 08:32:07;;;;;;;6.53;2.73;;;22.90;99.90;;;;;;5075504;28;20968;-60
2022/07/28 08:34:39;;;;;;;4.40;3.17;;;23.30;99.90;;;;;;5075850;28;20526;-60
2022/07/28 08:37:09;;;;;;;4.03;2.87;;;22.60;99.90;;;;;;5075266;28;20459;-60
2022/07/28 08:39:37;;;;;;;4.00;3.33;;;23.20;99.90;;;;;;5076862;28;20461;-59
2022/07/28 08:42:13;;;;;;;4.17;3.57;;;23.00;99.90;;;;;;5075868;28;20526;-59
2022/07/28 08:44:51;;;;;;;4.57;3.17;;;23.20;99.90;;;;;;5076983;28;20438;-61
2022/07/28 08:47:22;;;;;;;9.33;3.30;;;23.30;99.90;;;;;;5076486;28;20464;-58
2022/07/28 08:49:51;;;;;;;2.63;2.23;;;24.20;99.90;;;;;;5075814;28;20551;-60
2022/07/28 08:52:21;;;;;;;5.30;3.27;;;23.80;99.90;;;;;;5076280;28;20493;-58
2022/07/28 08:54:57;;;;;;;5.70;2.70;;;24.30;99.90;;;;;;5075822;28;20907;-60
2022/07/28 08:57:32;;;;;;;3.80;2.70;;;24.40;99.90;;;;;;5076035;28;20730;-61
2022/07/28 09:00:02;;;;;;;5.00;2.63;;;24.50;99.90;;;;;;5075491;28;20463;-59
2022/07/28 09:02:32;;;;;;;4.30;3.20;;;24.90;99.90;;;;;;5079667;28;20830;-59
2022/07/28 09:05:05;;;;;;;3.80;3.10;;;24.80;99.90;;;;;;5079811;28;20457;-60
2022/07/28 09:07:33;;;;;;;5.60;3.20;;;24.90;99.90;;;;;;5079482;28;20563;-61
2022/07/28 09:10:05;;;;;;;5.57;3.50;;;24.30;99.90;;;;;;5079059;28;20465;-60
2022/07/28 09:12:35;;;;;;;5.77;3.00;;;25.00;99.90;;;;;;5080155;28;20497;-60
2022/07/28 09:15:05;;;;;;;5.50;2.97;;;25.30;99.90;;;;;;5079690;28;20802;-59
2022/07/28 09:17:41;;;;;;;4.57;2.57;;;25.60;99.90;;;;;;5079781;28;20465;-61
2022/07/28 09:20:11;;;;;;;5.33;3.53;;;25.50;99.90;;;;;;5079896;28;20484;-61
2022/07/28 09:22:55;;;;;;;5.20;2.30;;;25.60;99.90;;;;;;5079851;28;20896;-59
2022/07/28 09:25:23;;;;;;;3.20;2.30;;;25.70;99.90;;;;;;5079599;28;20439;-60
2022/07/28 09:28:05;;;;;;;6.13;2.77;;;26.10;99.90;;;;;;5079021;28;20877;-59
2022/07/28 09:30:34;;;;;;;3.47;2.77;;;25.70;99.90;;;;;;5079122;28;20464;-59
2022/07/28 09:33:17;;;;;;;4.87;2.90;;;25.50;99.90;;;;;;5079062;28;20493;-61
2022/07/28 09:35:47;;;;;;;4.63;2.80;;;25.20;99.90;;;;;;5078538;28;20475;-60
2022/07/28 09:38:16;;;;;;;4.80;2.63;;;24.60;99.90;;;;;;5079435;28;20463;-61
2022/07/28 09:40:56;;;;;;;3.30;2.60;;;24.90;99.90;;;;;;5078682;28;20458;-58
2022/07/28 09:43:34;;;;;;;5.43;2.90;;;25.60;99.90;;;;;;5079099;28;20436;-61
2022/07/28 09:46:09;;;;;;;4.07;2.60;;;26.20;99.90;;;;;;5079911;28;20907;-60
2022/07/28 09:48:49;;;;;;;5.80;3.30;;;26.30;99.90;;;;;;5078815;28;20461;-59
2022/07/28 09:51:17;;;;;;;3.07;2.73;;;26.10;99.90;;;;;;5078988;28;20531;-59
2022/07/28 09:53:51;;;;;;;5.70;2.43;;;25.80;99.90;;;;;;5079084;28;20526;-60
2022/07/28 09:56:24;;;;;;;6.77;2.93;;;25.60;99.90;;;;;;5079657;28;20910;-59
2022/07/28 09:59:05;;;;;;;5.23;2.70;;;25.80;99.90;;;;;;5078357;28;20514;-58
2022/07/28 10:01:32;;;;;;;4.57;3.00;;;25.90;99.90;;;;;;5078072;28;20540;-59
2022/07/28 10:04:04;;;;;;;3.00;2.67;;;25.80;99.90;;;;;;5078651;28;20449;-56
2022/07/28 10:06:42;;;;;;;10.53;3.30;;;26.30;99.90;;;;;;5078404;28;20467;-62
2022/07/28 10:09:13;;;;;;;5.33;2.93;;;26.90;99.90;;;;;;5078663;28;20461;-61
2022/07/28 10:11:43;;;;;;;3.50;2.33;;;26.80;99.90;;;;;;5078773;28;20493;-61
2022/07/28 10:14:20;;;;;;;4.30;3.07;;;27.10;99.90;;;;;;5078459;28;20487;-57
2022/07/28 10:16:51;;;;;;;7.27;3.30;;;27.50;99.90;;;;;;5078490;28;20461;-60
2022/07/28 10:19:23;;;;;;;4.40;2.50;;;27.80;99.90;;;;;;5077984;28;20501;-61
2022/07/28 10:21:54;;;;;;;4.63;3.00;;;27.70;99.90;;;;;;5078682;28;20457;-59
2022/07/28 10:24:34;;;;;;;6.83;3.70;;;27.40;99.90;;;;;;5078113;28;20462;-61
2022/07/28 10:27:04;;;;;;;6.03;2.73;;;27.30;99.90;;;;;;5064681;28;20920;-60
2022/07/28 10:29:34;;;;;;;6.33;3.30;;;26.80;99.90;;;;;;5076972;28;20756;-59
2022/07/28 10:32:06;;;;;;;5.30;3.10;;;27.60;99.90;;;;;;5078196;28;20474;-60
2022/07/28 10:34:37;;;;;;;6.73;3.33;;;28.00;99.90;;;;;;5075895;28;20446;-60
2022/07/28 10:37:13;;;;;;;4.47;2.93;;;27.60;99.90;;;;;;5078168;28;20904;-61
2022/07/28 10:39:44;;;;;;;10.77;3.33;;;27.90;99.90;;;;;;5078006;28;20461;-62
2022/07/28 10:42:16;;;;;;;3.63;2.90;;;28.00;99.90;;;;;;5077748;28;20457;-61
2022/07/28 10:44:48;;;;;;;4.47;3.27;;;27.30;99.90;;;;;;5079994;28;20544;-61
2022/07/28 10:47:24;;;;;;;5.37;2.97;;;27.70;99.90;;;;;;5080445;28;20799;-62
2022/07/28 10:49:53;;;;;;;5.23;3.00;;;28.00;99.90;;;;;;5074985;28;20461;-62
2022/07/28 10:52:26;;;;;;;4.03;2.70;;;28.20;99.90;;;;;;5072901;28;20489;-62
2022/07/28 10:55:02;;;;;;;4.60;3.03;;;28.40;99.90;;;;;;5077000;28;20560;-62
2022/07/28 10:57:34;;;;;;;4.20;2.90;;;28.60;99.90;;;;;;5076822;28;20465;-61
2022/07/28 11:00:19;;;;;;;5.23;2.93;;;28.00;99.90;;;;;;5077305;28;20813;-62
2022/07/28 11:02:55;;;;;;;5.33;3.23;;;28.10;99.90;;;;;;5069164;28;20473;-61
2022/07/28 11:05:37;;;;;;;5.17;3.07;;;28.00;99.90;;;;;;5072673;28;20457;-62
2022/07/28 11:08:07;;;;;;;4.73;2.90;;;27.90;99.90;;;;;;5075990;28;20773;-62
2022/07/28 11:10:45;;;;;;;6.10;2.60;;;28.20;99.90;;;;;;5076679;28;20479;-62
2022/07/28 11:13:35;;;;;;;3.37;2.87;;;28.30;99.90;;;;;;5077036;28;20497;-62
2022/07/28 11:16:20;;;;;;;4.07;2.10;;;28.50;99.90;;;;;;5077199;28;20505;-61
2022/07/28 11:19:07;;;;;;;5.13;2.60;;;27.90;99.90;;;;;;5077157;28;20461;-61
2022/07/28 11:21:40;;;;;;;5.23;2.50;;;27.70;99.90;;;;;;5076467;28;20457;-61
2022/07/28 11:24:10;;;;;;;3.63;2.67;;;27.70;99.90;;;;;;5075567;28;20457;-62
2022/07/28 11:26:38;;;;;;;4.77;3.23;;;27.80;99.90;;;;;;5076670;28;20489;-61
2022/07/28 11:29:23;;;;;;;3.03;2.00;;;27.80;99.90;;;;;;5077114;28;20464;-56
2022/07/28 11:32:05;;;;;;;3.93;2.77;;;28.20;99.90;;;;;;5077126;28;20468;-61
2022/07/28 11:35:18;;;;;;;2.20;2.00;;;28.90;99.90;;;;;;5076889;28;20431;-57
2022/07/28 11:38:09;;;;;;;6.97;3.30;;;28.10;99.90;;;;;;5075598;28;20720;-60
2022/07/28 11:40:41;;;;;;;4.50;2.43;;;28.50;99.90;;;;;;5067003;28;20454;-59
2022/07/28 11:43:32;;;;;;;2.80;2.53;;;28.70;99.90;;;;;;5077019;28;20457;-60
2022/07/28 11:46:36;;;;;;;4.27;3.20;;;28.50;99.90;;;;;;5077464;28;20463;-60
2022/07/28 11:49:25;;;;;;;5.20;2.77;;;28.60;99.90;;;;;;5077229;28;20898;-61
2022/07/28 11:52:20;;;;;;;3.47;2.67;;;28.60;99.90;;;;;;5077244;28;20465;-60
2022/07/28 11:54:56;;;;;;;5.00;3.10;;;29.00;99.90;;;;;;5076878;28;20741;-60
2022/07/28 11:57:28;;;;;;;4.73;2.80;;;28.80;99.90;;;;;;5075695;28;20461;-60
2022/07/28 12:00:02;;;;;;;3.77;2.70;;;28.60;99.90;;;;;;5076591;28;20526;-58
2022/07/28 12:02:32;;;;;;;3.63;3.13;;;28.70;99.90;;;;;;5073818;28;20468;-59
2022/07/28 12:05:16;;;;;;;5.20;3.00;;;28.30;99.90;;;;;;5076021;28;20461;-60
2022/07/28 12:07:52;;;;;;;4.00;2.53;;;28.60;99.90;;;;;;5076340;28;20465;-58
2022/07/28 12:10:30;;;;;;;4.27;3.00;;;29.10;99.90;;;;;;5076701;28;20460;-57
2022/07/28 12:13:00;;;;;;;3.93;2.27;;;29.10;99.90;;;;;;5075588;28;20493;-59
2022/07/28 12:15:33;;;;;;;4.80;3.30;;;29.20;99.90;;;;;;5076800;28;20461;-60
2022/07/28 12:18:01;;;;;;;5.47;2.83;;;29.30;99.90;;;;;;5075937;28;20467;-60
2022/07/28 12:20:33;;;;;;;4.53;2.70;;;29.20;99.90;;;;;;5075975;28;20465;-60
2022/07/28 12:23:03;;;;;;;5.07;3.47;;;28.90;99.90;;;;;;5076548;28;20461;-59
2022/07/28 12:25:43;;;;;;;4.27;3.13;;;28.90;99.90;;;;;;5076218;28;20894;-60
2022/07/28 12:28:18;;;;;;;3.90;3.37;;;28.60;99.90;;;;;;5076046;28;20890;-58
2022/07/28 12:30:48;;;;;;;5.17;3.20;;;27.70;99.90;;;;;;5076458;28;20461;-60
2022/07/28 12:33:23;;;;;;;3.33;3.10;;;28.20;99.90;;;;;;5076562;28;21011;-59
2022/07/28 12:35:55;;;;;;;4.30;2.60;;;28.20;99.90;;;;;;5077964;28;20467;-60
2022/07/28 12:38:25;;;;;;;9.87;6.50;;;27.50;99.90;;;;;;5079614;28;20432;-60
2022/07/28 12:40:57;;;;;;;4.20;3.20;;;27.20;99.90;;;;;;5080595;28;20449;-60
2022/07/28 12:43:33;;;;;;;4.80;2.87;;;27.70;99.90;;;;;;5080313;28;20457;-59
2022/07/28 12:46:02;;;;;;;5.83;3.10;;;28.50;99.90;;;;;;5080678;28;20518;-60
2022/07/28 12:48:29;;;;;;;5.33;3.00;;;28.90;99.90;;;;;;5074169;28;20475;-60
2022/07/28 12:50:58;;;;;;;3.93;3.30;;;29.40;99.90;;;;;;5080614;28;20428;-58
2022/07/28 12:53:28;;;;;;;4.03;2.93;;;29.60;99.90;;;;;;5078306;28;20798;-58
2022/07/28 12:56:02;;;;;;;4.33;3.10;;;29.70;99.90;;;;;;5078441;28;20479;-59
2022/07/28 12:58:35;;;;;;;3.83;2.80;;;29.00;99.90;;;;;;5077230;28;20568;-57
2022/07/28 13:01:07;;;;;;;4.40;2.63;;;28.90;99.90;;;;;;5077009;28;20473;-60
2022/07/28 13:03:36;;;;;;;5.67;2.33;;;29.80;99.90;;;;;;5078731;28;20504;-59
2022/07/28 13:06:12;;;;;;;3.57;2.80;;;29.60;99.90;;;;;;5075608;28;20443;-61
2022/07/28 13:08:44;;;;;;;6.03;2.50;;;30.10;99.90;;;;;;5075812;28;20511;-60
2022/07/28 13:11:14;;;;;;;2.60;2.40;;;30.20;99.90;;;;;;5078801;28;20479;-56